sensor_id;sensor_type;location;lat;lon;timestamp;P1;P2;P0
46044;PMS7003;31781;54.094;13.428;2024-01-11T00:00:28;5.00;4.00;1.00
46044;PMS7003;31781;54.094;13.428;2024-01-11T00:06:29;7.33;7.33;5.67
46044;PMS7003;31781;54.094;13.428;2024-01-11T00:12:32;6.00;4.67;3.33
46044;PMS7003;31781;54.094;13.428;2024-01-11T00:18:34;6.00;5.67;4.33
46044;PMS7003;31781;54.094;13.428;2024-01-11T00:24:36;4.00;4.00;2.00
46044;PMS7003;31781;54.094;13.428;2024-01-11T00:30:41;4.67;4.67;4.00
46044;PMS7003;31781;54.094;13.428;2024-01-11T00:36:43;5.50;5.50;4.50
46044;PMS7003;31781;54.094;13.428;2024-01-11T00:42:44;5.00;5.00;4.00
46044;PMS7003;31781;54.094;13.428;2024-01-11T00:48:47;7.00;4.00;1.67
46044;PMS7003;31781;54.094;13.428;2024-01-11T00:54:52;3.33;3.33;2.00
46044;PMS7003;31781;54.094;13.428;2024-01-11T01:00:53;10.00;10.00;7.75
46044;PMS7003;31781;54.094;13.428;2024-01-11T01:06:57;6.33;6.33;5.00
46044;PMS7003;31781;54.094;13.428;2024-01-11T01:12:58;5.00;5.00;4.00
46044;PMS7003;31781;54.094;13.428;2024-01-11T01:19:00;4.00;4.00;2.00
46044;PMS7003;31781;54.094;13.428;2024-01-11T01:25:04;7.00;7.00;6.00
46044;PMS7003;31781;54.094;13.428;2024-01-11T01:31:06;7.33;7.00;4.00
46044;PMS7003;31781;54.094;13.428;2024-01-11T01:37:07;11.25;11.25;7.00
46044;PMS7003;31781;54.094;13.428;2024-01-11T01:43:10;11.67;7.00;5.00
46044;PMS7003;31781;54.094;13.428;2024-01-11T01:49:12;11.00;7.75;6.50
46044;PMS7003;31781;54.094;13.428;2024-01-11T01:55:14;7.00;7.00;4.75
46044;PMS7003;31781;54.094;13.428;2024-01-11T02:01:18;7.00;7.00;4.67
46044;PMS7003;31781;54.094;13.428;2024-01-11T02:07:21;5.50;5.50;4.00
46044;PMS7003;31781;54.094;13.428;2024-01-11T02:13:22;7.25;6.50;5.00
46044;PMS7003;31781;54.094;13.428;2024-01-11T02:19:25;11.50;11.50;7.00
46044;PMS7003;31781;54.094;13.428;2024-01-11T02:25:28;14.00;13.00;9.00
46044;PMS7003;31781;54.094;13.428;2024-01-11T02:31:30;11.75;10.00;6.50
46044;PMS7003;31781;54.094;13.428;2024-01-11T02:37:32;19.25;10.00;7.00
46044;PMS7003;31781;54.094;13.428;2024-01-11T02:43:35;12.25;10.25;8.00
46044;PMS7003;31781;54.094;13.428;2024-01-11T02:49:37;13.00;11.00;7.00
46044;PMS7003;31781;54.094;13.428;2024-01-11T02:55:38;5.00;5.00;3.00
46044;PMS7003;31781;54.094;13.428;2024-01-11T03:01:41;11.00;8.00;6.50
46044;PMS7003;31781;54.094;13.428;2024-01-11T03:07:43;11.00;11.00;7.33
46044;PMS7003;31781;54.094;13.428;2024-01-11T03:13:45;6.00;6.00;5.00
46044;PMS7003;31781;54.094;13.428;2024-01-11T03:19:48;13.33;11.00;5.67
46044;PMS7003;31781;54.094;13.428;2024-01-11T03:25:49;9.75;9.00;6.00
46044;PMS7003;31781;54.094;13.428;2024-01-11T03:31:51;11.00;11.00;8.00
46044;PMS7003;31781;54.094;13.428;2024-01-11T03:37:54;12.50;12.50;7.75
46044;PMS7003;31781;54.094;13.428;2024-01-11T03:43:55;12.25;9.00;6.50
46044;PMS7003;31781;54.094;13.428;2024-01-11T03:49:57;11.00;11.00;7.50
46044;PMS7003;31781;54.094;13.428;2024-01-11T03:56:01;11.00;11.00;7.00
46044;PMS7003;31781;54.094;13.428;2024-01-11T04:02:02;19.00;12.00;7.75
46044;PMS7003;31781;54.094;13.428;2024-01-11T04:08:05;9.50;9.50;8.00
46044;PMS7003;31781;54.094;13.428;2024-01-11T04:14:08;15.75;11.00;8.25
46044;PMS7003;31781;54.094;13.428;2024-01-11T04:20:10;15.25;12.50;7.50
46044;PMS7003;31781;54.094;13.428;2024-01-11T04:26:12;9.00;9.00;6.50
46044;PMS7003;31781;54.094;13.428;2024-01-11T04:32:15;16.25;14.00;8.25
46044;PMS7003;31781;54.094;13.428;2024-01-11T04:38:16;11.00;11.00;7.75
46044;PMS7003;31781;54.094;13.428;2024-01-11T04:44:18;10.75;10.75;7.25
46044;PMS7003;31781;54.094;13.428;2024-01-11T04:50:21;13.00;10.75;8.00
46044;PMS7003;31781;54.094;13.428;2024-01-11T04:56:23;16.50;13.50;10.00
46044;PMS7003;31781;54.094;13.428;2024-01-11T05:02:25;11.75;10.75;7.00
46044;PMS7003;31781;54.094;13.428;2024-01-11T05:08:28;16.00;13.25;6.75
46044;PMS7003;31781;54.094;13.428;2024-01-11T05:14:30;12.75;10.00;7.00
46044;PMS7003;31781;54.094;13.428;2024-01-11T05:20:32;18.00;16.00;9.00
46044;PMS7003;31781;54.094;13.428;2024-01-11T05:26:35;12.50;6.50;4.00
46044;PMS7003;31781;54.094;13.428;2024-01-11T05:32:37;12.50;11.25;6.50
46044;PMS7003;31781;54.094;13.428;2024-01-11T05:38:39;13.00;13.00;8.25
46044;PMS7003;31781;54.094;13.428;2024-01-11T05:44:42;10.00;10.00;7.00
46044;PMS7003;31781;54.094;13.428;2024-01-11T05:50:44;12.75;12.75;7.50
46044;PMS7003;31781;54.094;13.428;2024-01-11T05:56:46;9.75;9.75;7.50
46044;PMS7003;31781;54.094;13.428;2024-01-11T06:02:49;13.00;8.25;5.25
46044;PMS7003;31781;54.094;13.428;2024-01-11T06:08:50;5.75;5.75;4.25
46044;PMS7003;31781;54.094;13.428;2024-01-11T06:14:52;10.00;10.00;5.25
46044;PMS7003;31781;54.094;13.428;2024-01-11T06:20:55;7.75;7.75;5.00
46044;PMS7003;31781;54.094;13.428;2024-01-11T06:26:56;14.50;10.75;5.75
46044;PMS7003;31781;54.094;13.428;2024-01-11T06:32:58;14.75;11.25;10.75
46044;PMS7003;31781;54.094;13.428;2024-01-11T06:39:01;12.75;12.75;9.25
46044;PMS7003;31781;54.094;13.428;2024-01-11T06:45:03;17.00;13.50;6.50
46044;PMS7003;31781;54.094;13.428;2024-01-11T06:51:05;13.00;11.25;7.00
46044;PMS7003;31781;54.094;13.428;2024-01-11T06:57:08;13.50;13.50;8.50
46044;PMS7003;31781;54.094;13.428;2024-01-11T07:03:09;14.50;9.75;7.00
46044;PMS7003;31781;54.094;13.428;2024-01-11T07:09:11;10.50;10.50;7.00
46044;PMS7003;31781;54.094;13.428;2024-01-11T07:15:14;9.00;9.00;4.00
46044;PMS7003;31781;54.094;13.428;2024-01-11T07:21:19;10.75;8.25;5.75
46044;PMS7003;31781;54.094;13.428;2024-01-11T07:27:22;21.00;12.25;10.00
46044;PMS7003;31781;54.094;13.428;2024-01-11T07:33:25;12.50;12.50;8.00
46044;PMS7003;31781;54.094;13.428;2024-01-11T07:39:27;15.00;9.25;7.00
46044;PMS7003;31781;54.094;13.428;2024-01-11T07:45:29;10.25;10.25;7.00
46044;PMS7003;31781;54.094;13.428;2024-01-11T07:51:32;9.25;8.50;6.00
46044;PMS7003;31781;54.094;13.428;2024-01-11T07:57:34;5.25;5.25;3.50
46044;PMS7003;31781;54.094;13.428;2024-01-11T08:03:36;4.50;4.50;3.75
46044;PMS7003;31781;54.094;13.428;2024-01-11T08:09:39;6.00;6.00;4.25
46044;PMS7003;31781;54.094;13.428;2024-01-11T08:15:40;0.00;0.00;0.00
46044;PMS7003;31781;54.094;13.428;2024-01-11T08:21:42;6.33;6.33;3.67
46044;PMS7003;31781;54.094;13.428;2024-01-11T08:27:45;6.33;6.33;4.00
46044;PMS7003;31781;54.094;13.428;2024-01-11T08:33:46;4.00;4.00;2.00
46044;PMS7003;31781;54.094;13.428;2024-01-11T08:39:48;4.33;4.33;2.00
46044;PMS7003;31781;54.094;13.428;2024-01-11T08:45:51;5.33;5.33;3.33
46044;PMS7003;31781;54.094;13.428;2024-01-11T08:51:53;5.67;5.00;3.33
46044;PMS7003;31781;54.094;13.428;2024-01-11T08:57:54;5.00;5.00;4.33
46044;PMS7003;31781;54.094;13.428;2024-01-11T09:03:57;2.67;2.67;2.00
46044;PMS7003;31781;54.094;13.428;2024-01-11T09:09:59;4.00;4.00;2.67
46044;PMS7003;31781;54.094;13.428;2024-01-11T09:16:00;1.00;1.00;0.33
46044;PMS7003;31781;54.094;13.428;2024-01-11T09:22:03;2.00;2.00;2.00
46044;PMS7003;31781;54.094;13.428;2024-01-11T09:28:05;2.00;2.00;2.00
46044;PMS7003;31781;54.094;13.428;2024-01-11T09:34:07;4.67;2.00;2.00
46044;PMS7003;31781;54.094;13.428;2024-01-11T09:40:10;4.33;4.33;4.00
46044;PMS7003;31781;54.094;13.428;2024-01-11T09:46:12;8.67;8.67;6.67
46044;PMS7003;31781;54.094;13.428;2024-01-11T09:52:14;5.67;5.67;4.67
46044;PMS7003;31781;54.094;13.428;2024-01-11T09:58:19;9.50;9.50;9.50
46044;PMS7003;31781;54.094;13.428;2024-01-11T10:04:22;11.75;11.75;11.00
46044;PMS7003;31781;54.094;13.428;2024-01-11T10:10:25;16.25;11.75;11.00
46044;PMS7003;31781;54.094;13.428;2024-01-11T10:16:28;8.00;7.33;7.00
46044;PMS7003;31781;54.094;13.428;2024-01-11T10:22:30;4.00;4.00;4.00
46044;PMS7003;31781;54.094;13.428;2024-01-11T10:28:31;4.33;4.33;4.00
46044;PMS7003;31781;54.094;13.428;2024-01-11T10:34:34;5.00;4.67;4.33
46044;PMS7003;31781;54.094;13.428;2024-01-11T10:40:36;5.00;5.00;3.33
46044;PMS7003;31781;54.094;13.428;2024-01-11T10:46:38;2.00;2.00;1.33
46044;PMS7003;31781;54.094;13.428;2024-01-11T10:52:42;5.00;2.00;2.00
46044;PMS7003;31781;54.094;13.428;2024-01-11T10:59:03;3.67;3.67;3.33
46044;PMS7003;31781;54.094;13.428;2024-01-11T11:05:05;2.00;2.00;2.00
46044;PMS7003;31781;54.094;13.428;2024-01-11T11:11:11;2.00;2.00;2.00
46044;PMS7003;31781;54.094;13.428;2024-01-11T11:17:14;2.00;2.00;1.00
46044;PMS7003;31781;54.094;13.428;2024-01-11T11:23:16;3.33;3.33;2.00
46044;PMS7003;31781;54.094;13.428;2024-01-11T11:29:21;2.00;2.00;1.00
46044;PMS7003;31781;54.094;13.428;2024-01-11T11:35:23;4.00;4.00;2.67
46044;PMS7003;31781;54.094;13.428;2024-01-11T11:41:25;1.00;1.00;1.00
46044;PMS7003;31781;54.094;13.428;2024-01-11T11:47:33;1.00;1.00;1.00
46044;PMS7003;31781;54.094;13.428;2024-01-11T11:53:36;2.00;2.00;1.33
46044;PMS7003;31781;54.094;13.428;2024-01-11T11:59:39;5.00;5.00;4.67
46044;PMS7003;31781;54.094;13.428;2024-01-11T12:05:42;2.00;2.00;1.33
46044;PMS7003;31781;54.094;13.428;2024-01-11T12:11:44;2.00;2.00;2.00
46044;PMS7003;31781;54.094;13.428;2024-01-11T12:17:57;2.67;2.67;2.00
46044;PMS7003;31781;54.094;13.428;2024-01-11T12:24:00;4.00;4.00;2.00
46044;PMS7003;31781;54.094;13.428;2024-01-11T12:30:02;4.33;4.00;2.00
46044;PMS7003;31781;54.094;13.428;2024-01-11T12:36:05;4.00;4.00;3.33
46044;PMS7003;31781;54.094;13.428;2024-01-11T12:42:09;6.00;5.00;2.67
46044;PMS7003;31781;54.094;13.428;2024-01-11T12:48:11;2.00;2.00;1.00
46044;PMS7003;31781;54.094;13.428;2024-01-11T12:54:13;6.33;4.33;4.00
46044;PMS7003;31781;54.094;13.428;2024-01-11T13:00:17;4.67;4.67;2.00
46044;PMS7003;31781;54.094;13.428;2024-01-11T13:06:19;5.00;4.00;2.00
46044;PMS7003;31781;54.094;13.428;2024-01-11T13:12:21;2.00;2.00;2.00
46044;PMS7003;31781;54.094;13.428;2024-01-11T13:18:24;4.00;4.00;2.00
46044;PMS7003;31781;54.094;13.428;2024-01-11T13:24:25;4.67;2.00;1.67
46044;PMS7003;31781;54.094;13.428;2024-01-11T13:30:27;2.00;2.00;1.00
46044;PMS7003;31781;54.094;13.428;2024-01-11T13:36:30;7.33;1.67;1.00
46044;PMS7003;31781;54.094;13.428;2024-01-11T13:42:31;2.00;2.00;2.00
46044;PMS7003;31781;54.094;13.428;2024-01-11T13:48:33;2.00;2.00;2.00
46044;PMS7003;31781;54.094;13.428;2024-01-11T13:54:36;1.00;0.00;0.00
46044;PMS7003;31781;54.094;13.428;2024-01-11T14:00:38;1.33;1.33;1.33
46044;PMS7003;31781;54.094;13.428;2024-01-11T14:06:40;2.67;2.67;1.00
46044;PMS7003;31781;54.094;13.428;2024-01-11T14:12:43;2.00;2.00;2.00
46044;PMS7003;31781;54.094;13.428;2024-01-11T14:18:44;1.67;1.67;1.00
46044;PMS7003;31781;54.094;13.428;2024-01-11T14:24:46;1.33;1.33;1.00
46044;PMS7003;31781;54.094;13.428;2024-01-11T14:30:49;1.33;1.33;1.00
46044;PMS7003;31781;54.094;13.428;2024-01-11T14:36:51;0.00;0.00;0.00
46044;PMS7003;31781;54.094;13.428;2024-01-11T14:42:52;1.67;1.67;1.67
46044;PMS7003;31781;54.094;13.428;2024-01-11T14:48:55;0.67;0.67;0.33
46044;PMS7003;31781;54.094;13.428;2024-01-11T14:54:57;1.00;1.00;1.00
46044;PMS7003;31781;54.094;13.428;2024-01-11T15:00:59;2.67;1.00;1.00
46044;PMS7003;31781;54.094;13.428;2024-01-11T15:07:02;1.33;1.00;0.67
46044;PMS7003;31781;54.094;13.428;2024-01-11T15:13:04;2.00;0.00;0.00
46044;PMS7003;31781;54.094;13.428;2024-01-11T15:19:05;1.00;1.00;1.00
46044;PMS7003;31781;54.094;13.428;2024-01-11T15:25:09;1.00;1.00;1.00
46044;PMS7003;31781;54.094;13.428;2024-01-11T15:31:10;1.00;1.00;1.00
46044;PMS7003;31781;54.094;13.428;2024-01-11T15:37:12;1.00;1.00;1.00
46044;PMS7003;31781;54.094;13.428;2024-01-11T15:43:15;4.00;2.00;1.00
46044;PMS7003;31781;54.094;13.428;2024-01-11T15:49:17;0.00;0.00;0.00
46044;PMS7003;31781;54.094;13.428;2024-01-11T15:55:19;1.33;1.33;0.67
46044;PMS7003;31781;54.094;13.428;2024-01-11T16:01:22;1.00;1.00;1.00
46044;PMS7003;31781;54.094;13.428;2024-01-11T16:07:24;1.67;1.00;0.67
46044;PMS7003;31781;54.094;13.428;2024-01-11T16:13:26;1.00;1.00;1.00
46044;PMS7003;31781;54.094;13.428;2024-01-11T16:19:29;1.67;1.67;1.67
46044;PMS7003;31781;54.094;13.428;2024-01-11T16:25:30;1.00;1.00;1.00
46044;PMS7003;31781;54.094;13.428;2024-01-11T16:31:32;1.00;1.00;1.00
46044;PMS7003;31781;54.094;13.428;2024-01-11T16:37:35;1.67;1.67;1.00
46044;PMS7003;31781;54.094;13.428;2024-01-11T16:43:37;1.00;1.00;1.00
46044;PMS7003;31781;54.094;13.428;2024-01-11T16:49:40;2.00;1.00;1.00
46044;PMS7003;31781;54.094;13.428;2024-01-11T16:55:44;2.00;2.00;1.67
46044;PMS7003;31781;54.094;13.428;2024-01-11T17:01:45;2.67;2.00;1.00
46044;PMS7003;31781;54.094;13.428;2024-01-11T17:07:47;1.67;1.67;1.67
46044;PMS7003;31781;54.094;13.428;2024-01-11T17:13:50;3.33;3.33;3.33
46044;PMS7003;31781;54.094;13.428;2024-01-11T17:19:51;2.00;2.00;2.00
46044;PMS7003;31781;54.094;13.428;2024-01-11T17:25:53;1.67;1.67;1.67
46044;PMS7003;31781;54.094;13.428;2024-01-11T17:31:56;5.67;5.67;4.67
46044;PMS7003;31781;54.094;13.428;2024-01-11T17:37:58;1.00;1.00;1.00
46044;PMS7003;31781;54.094;13.428;2024-01-11T17:43:59;10.00;10.00;7.00
46044;PMS7003;31781;54.094;13.428;2024-01-11T17:50:03;8.00;8.00;7.00
46044;PMS7003;31781;54.094;13.428;2024-01-11T17:56:05;11.00;11.00;8.00
46044;PMS7003;31781;54.094;13.428;2024-01-11T18:02:07;12.33;8.00;7.00
46044;PMS7003;31781;54.094;13.428;2024-01-11T18:08:11;5.67;4.33;2.67
46044;PMS7003;31781;54.094;13.428;2024-01-11T18:14:13;2.00;2.00;1.33
46044;PMS7003;31781;54.094;13.428;2024-01-11T18:20:14;2.00;2.00;1.00
46044;PMS7003;31781;54.094;13.428;2024-01-11T18:26:18;8.00;4.00;2.67
46044;PMS7003;31781;54.094;13.428;2024-01-11T18:32:19;4.67;3.33;1.67
46044;PMS7003;31781;54.094;13.428;2024-01-11T18:38:21;5.00;4.00;2.00
46044;PMS7003;31781;54.094;13.428;2024-01-11T18:44:24;4.33;4.33;4.00
46044;PMS7003;31781;54.094;13.428;2024-01-11T18:50:26;7.00;4.00;2.67
46044;PMS7003;31781;54.094;13.428;2024-01-11T18:56:28;5.00;2.67;2.33
46044;PMS7003;31781;54.094;13.428;2024-01-11T19:02:31;3.75;3.75;3.75
46044;PMS7003;31781;54.094;13.428;2024-01-11T19:08:32;7.00;4.75;4.00
46044;PMS7003;31781;54.094;13.428;2024-01-11T19:14:34;3.50;3.50;2.25
46044;PMS7003;31781;54.094;13.428;2024-01-11T19:20:37;5.00;5.00;4.00
46044;PMS7003;31781;54.094;13.428;2024-01-11T19:26:39;10.50;9.25;7.00
46044;PMS7003;31781;54.094;13.428;2024-01-11T19:32:41;7.00;7.00;5.25
46044;PMS7003;31781;54.094;13.428;2024-01-11T19:38:44;8.25;8.25;7.00
46044;PMS7003;31781;54.094;13.428;2024-01-11T19:44:46;6.75;6.00;4.75
46044;PMS7003;31781;54.094;13.428;2024-01-11T19:50:48;4.75;4.75;3.75
46044;PMS7003;31781;54.094;13.428;2024-01-11T19:56:51;7.50;7.50;5.25
46044;PMS7003;31781;54.094;13.428;2024-01-11T20:02:53;9.25;8.25;5.25
46044;PMS7003;31781;54.094;13.428;2024-01-11T20:08:55;10.00;8.25;7.00
46044;PMS7003;31781;54.094;13.428;2024-01-11T20:14:58;9.25;8.50;6.50
46044;PMS7003;31781;54.094;13.428;2024-01-11T20:21:00;8.75;8.75;6.75
46044;PMS7003;31781;54.094;13.428;2024-01-11T20:27:02;9.50;7.00;6.00
46044;PMS7003;31781;54.094;13.428;2024-01-11T20:33:06;16.00;16.00;13.00
46044;PMS7003;31781;54.094;13.428;2024-01-11T20:39:08;6.25;6.25;5.50
46044;PMS7003;31781;54.094;13.428;2024-01-11T20:45:10;7.00;7.00;6.00
46044;PMS7003;31781;54.094;13.428;2024-01-11T20:51:15;8.75;8.75;6.00
46044;PMS7003;31781;54.094;13.428;2024-01-11T20:57:16;11.00;9.75;6.75
46044;PMS7003;31781;54.094;13.428;2024-01-11T21:03:18;10.00;9.00;7.00
46044;PMS7003;31781;54.094;13.428;2024-01-11T21:09:21;6.25;6.25;4.00
46044;PMS7003;31781;54.094;13.428;2024-01-11T21:15:23;11.00;9.50;6.00
46044;PMS7003;31781;54.094;13.428;2024-01-11T21:21:24;10.00;10.00;7.25
46044;PMS7003;31781;54.094;13.428;2024-01-11T21:27:27;9.50;9.50;6.75
46044;PMS7003;31781;54.094;13.428;2024-01-11T21:33:29;13.25;11.25;9.75
46044;PMS7003;31781;54.094;13.428;2024-01-11T21:39:31;10.00;7.75;6.00
46044;PMS7003;31781;54.094;13.428;2024-01-11T21:45:34;9.25;9.25;6.00
46044;PMS7003;31781;54.094;13.428;2024-01-11T21:51:36;7.00;5.25;3.50
46044;PMS7003;31781;54.094;13.428;2024-01-11T21:57:37;9.00;9.00;7.00
46044;PMS7003;31781;54.094;13.428;2024-01-11T22:03:40;11.00;6.75;6.00
46044;PMS7003;31781;54.094;13.428;2024-01-11T22:09:42;13.00;9.00;7.00
46044;PMS7003;31781;54.094;13.428;2024-01-11T22:15:43;10.50;10.50;7.00
46044;PMS7003;31781;54.094;13.428;2024-01-11T22:21:47;15.75;10.75;7.75
46044;PMS7003;31781;54.094;13.428;2024-01-11T22:27:48;14.75;12.75;9.50
46044;PMS7003;31781;54.094;13.428;2024-01-11T22:33:50;13.75;13.75;10.00
46044;PMS7003;31781;54.094;13.428;2024-01-11T22:39:54;20.00;13.75;9.75
46044;PMS7003;31781;54.094;13.428;2024-01-11T22:45:56;11.00;11.00;9.75
46044;PMS7003;31781;54.094;13.428;2024-01-11T22:51:57;14.25;11.00;8.25
46044;PMS7003;31781;54.094;13.428;2024-01-11T22:58:00;9.00;9.00;6.00
46044;PMS7003;31781;54.094;13.428;2024-01-11T23:04:02;12.00;12.00;7.50
46044;PMS7003;31781;54.094;13.428;2024-01-11T23:10:04;10.50;10.50;7.50
46044;PMS7003;31781;54.094;13.428;2024-01-11T23:16:08;12.25;9.75;9.00
46044;PMS7003;31781;54.094;13.428;2024-01-11T23:22:10;10.00;10.00;9.00
46044;PMS7003;31781;54.094;13.428;2024-01-11T23:28:11;7.50;7.50;6.25
46044;PMS7003;31781;54.094;13.428;2024-01-11T23:34:14;9.50;9.50;7.00
46044;PMS7003;31781;54.094;13.428;2024-01-11T23:40:16;9.00;6.00;4.50
46044;PMS7003;31781;54.094;13.428;2024-01-11T23:46:17;3.00;3.00;1.00
46044;PMS7003;31781;54.094;13.428;2024-01-11T23:52:20;9.50;8.25;7.00
46044;PMS7003;31781;54.094;13.428;2024-01-11T23:58:22;6.75;6.75;5.00
